createdAt,value
2017-11-24T00:01:20.603Z,9.50
2017-11-24T00:03:48.915Z,9.40
2017-11-24T00:06:18.698Z,9.50
2017-11-24T00:08:46.961Z,9.50
2017-11-24T00:11:15.205Z,9.50
2017-11-24T00:13:44.212Z,9.70
2017-11-24T00:16:13.220Z,9.70
2017-11-24T00:18:41.475Z,9.70
2017-11-24T00:21:09.750Z,9.70
2017-11-24T00:23:38.746Z,9.70
2017-11-24T00:26:07.007Z,9.70
2017-11-24T00:28:35.265Z,9.70
2017-11-24T00:31:03.480Z,9.70
2017-11-24T00:33:32.548Z,9.60
2017-11-24T00:38:45.958Z,9.50
2017-11-24T00:41:14.276Z,9.40
2017-11-24T00:43:42.520Z,9.30
2017-11-24T00:46:10.803Z,9.20
2017-11-24T00:48:39.051Z,9.10
2017-11-24T00:51:07.313Z,9.00
2017-11-24T00:53:36.354Z,9.00
2017-11-24T00:56:04.671Z,9.00
2017-11-24T00:58:32.911Z,9.00
2017-11-24T01:01:02.341Z,9.00
2017-11-24T01:03:30.672Z,9.00
2017-11-24T01:05:58.933Z,9.00
2017-11-24T01:08:27.174Z,8.80
2017-11-24T01:10:55.446Z,8.80
2017-11-24T01:13:23.706Z,8.90
2017-11-24T01:15:51.956Z,8.90
2017-11-24T01:18:20.278Z,8.90
2017-11-24T01:20:49.352Z,8.90
2017-11-24T01:23:17.608Z,8.90
2017-11-24T01:25:45.878Z,8.90
2017-11-24T01:28:14.872Z,8.80
2017-11-24T01:30:43.444Z,8.80
2017-11-24T01:33:11.717Z,8.70
2017-11-24T01:35:40.795Z,8.80
2017-11-24T01:38:09.916Z,8.80
2017-11-24T01:40:38.573Z,8.70
2017-11-24T01:43:07.587Z,8.80
2017-11-24T01:45:36.609Z,8.80
2017-11-24T01:48:04.940Z,8.80
2017-11-24T01:50:33.183Z,8.90
2017-11-24T01:53:01.471Z,8.90
2017-11-24T01:55:29.753Z,8.90
2017-11-24T01:57:58.337Z,9.00
2017-11-24T02:00:26.598Z,8.80
2017-11-24T02:02:55.301Z,8.70
2017-11-24T02:05:23.563Z,8.70
2017-11-24T02:07:51.848Z,8.80
2017-11-24T02:10:20.092Z,8.90
2017-11-24T02:12:48.353Z,8.90
2017-11-24T02:15:17.553Z,9.00
2017-11-24T02:17:46.545Z,9.00
2017-11-24T02:20:15.568Z,9.10
2017-11-24T02:22:43.826Z,9.10
2017-11-24T02:25:12.173Z,9.10
2017-11-24T02:27:40.434Z,9.20
2017-11-24T02:30:08.675Z,9.10
2017-11-24T02:32:37.004Z,9.10
2017-11-24T02:35:05.242Z,9.00
2017-11-24T02:37:33.567Z,9.10
2017-11-24T02:40:02.629Z,9.10
2017-11-24T02:42:30.880Z,9.10
2017-11-24T02:44:59.164Z,9.10
2017-11-24T02:47:27.399Z,9.00
2017-11-24T02:49:55.694Z,9.10
2017-11-24T02:52:23.956Z,9.10
2017-11-24T02:54:53.038Z,9.00
2017-11-24T02:57:21.302Z,9.00
2017-11-24T02:59:49.576Z,9.10
2017-11-24T03:02:17.833Z,9.10
2017-11-24T03:04:46.077Z,9.10
2017-11-24T03:07:14.357Z,9.10
2017-11-24T03:09:43.349Z,9.10
2017-11-24T03:12:11.638Z,9.10
2017-11-24T03:14:39.879Z,9.20
2017-11-24T03:17:08.907Z,9.10
2017-11-24T03:19:37.930Z,9.20
2017-11-24T03:22:06.176Z,9.20
2017-11-24T03:24:34.446Z,9.30
2017-11-24T03:27:03.436Z,9.30
2017-11-24T03:29:32.454Z,9.30
2017-11-24T03:32:00.719Z,9.30
2017-11-24T03:34:28.986Z,9.30
2017-11-24T03:36:57.998Z,9.40
2017-11-24T03:39:26.253Z,9.30
2017-11-24T03:41:55.296Z,9.50
2017-11-24T03:44:23.563Z,9.40
2017-11-24T03:46:51.817Z,9.60
2017-11-24T03:49:20.076Z,9.70
2017-11-24T03:51:49.075Z,9.90
2017-11-24T03:54:17.331Z,9.80
2017-11-24T03:56:45.727Z,9.90
2017-11-24T03:59:13.945Z,9.90
2017-11-24T04:01:42.582Z,9.80
2017-11-24T04:04:10.837Z,9.70
2017-11-24T04:06:39.082Z,9.80
2017-11-24T04:09:08.155Z,10.10
2017-11-24T04:11:36.519Z,10.10
2017-11-24T04:14:04.762Z,10.20
2017-11-24T04:16:33.033Z,10.40
2017-11-24T04:19:01.269Z,10.50
2017-11-24T04:21:29.523Z,10.60
2017-11-24T04:23:58.528Z,10.60
2017-11-24T04:26:26.807Z,10.60
2017-11-24T04:28:55.074Z,10.70
2017-11-24T04:31:24.112Z,10.60
2017-11-24T04:33:52.377Z,10.60
2017-11-24T04:36:20.634Z,10.60
2017-11-24T04:38:49.667Z,10.10
2017-11-24T04:41:17.946Z,10.10
2017-11-24T04:43:46.199Z,9.80
2017-11-24T04:46:14.494Z,9.60
2017-11-24T04:48:42.731Z,9.30
2017-11-24T04:51:11.398Z,9.10
2017-11-24T04:53:39.640Z,9.10
2017-11-24T04:56:07.960Z,9.20
2017-11-24T04:58:36.216Z,9.10
2017-11-24T05:01:04.613Z,9.00
2017-11-24T05:03:32.852Z,9.10
2017-11-24T05:06:01.111Z,9.00
2017-11-24T05:08:29.397Z,9.00
2017-11-24T05:10:57.659Z,8.90
2017-11-24T05:13:25.906Z,8.90
2017-11-24T05:15:55.573Z,9.00
2017-11-24T05:18:23.836Z,8.90
2017-11-24T05:20:52.092Z,9.00
2017-11-24T05:23:21.183Z,8.90
2017-11-24T05:25:50.251Z,8.70
2017-11-24T05:28:18.484Z,8.70
2017-11-24T05:30:47.372Z,8.70
2017-11-24T05:33:15.642Z,8.80
2017-11-24T05:35:44.659Z,8.80
2017-11-24T05:38:12.913Z,8.80
2017-11-24T05:40:41.153Z,8.90
2017-11-24T05:43:09.449Z,8.90
2017-11-24T05:45:37.688Z,8.90
2017-11-24T05:48:05.946Z,8.90
2017-11-24T05:50:34.188Z,9.00
2017-11-24T05:53:02.481Z,9.00
2017-11-24T05:55:30.726Z,9.00
2017-11-24T05:57:59.907Z,9.10
2017-11-24T06:00:28.830Z,9.20
2017-11-24T06:02:57.326Z,9.20
2017-11-24T06:05:26.303Z,9.20
2017-11-24T06:07:54.616Z,9.20
2017-11-24T06:10:22.920Z,9.10
2017-11-24T06:12:51.206Z,9.20
2017-11-24T06:15:19.528Z,9.20
2017-11-24T06:17:48.594Z,9.10
2017-11-24T06:20:16.855Z,9.10
2017-11-24T06:22:45.113Z,9.20
2017-11-24T06:25:13.380Z,9.20
2017-11-24T06:27:41.668Z,9.20
2017-11-24T06:30:09.950Z,9.20
2017-11-24T06:32:38.280Z,9.30
2017-11-24T06:35:07.304Z,9.30
2017-11-24T06:37:35.567Z,9.50
2017-11-24T06:40:03.799Z,9.80
2017-11-24T06:42:32.045Z,10.20
2017-11-24T06:45:00.283Z,10.00
2017-11-24T06:47:29.329Z,9.30
2017-11-24T06:49:57.584Z,9.30
2017-11-24T06:52:25.872Z,9.10
2017-11-24T06:54:54.074Z,9.00
2017-11-24T06:57:22.376Z,8.90
2017-11-24T06:59:51.409Z,8.70
2017-11-24T07:02:19.695Z,8.70
2017-11-24T07:04:47.942Z,8.60
2017-11-24T07:07:16.975Z,8.60
2017-11-24T07:09:46.049Z,8.50
2017-11-24T07:12:14.303Z,8.60
2017-11-24T07:14:43.333Z,8.60
2017-11-24T07:17:11.564Z,8.60
2017-11-24T07:19:40.597Z,8.60
2017-11-24T07:22:08.884Z,8.60
2017-11-24T07:24:37.200Z,8.60
2017-11-24T07:27:05.427Z,8.60
2017-11-24T07:29:33.651Z,8.60
2017-11-24T07:32:01.933Z,8.60
2017-11-24T07:34:30.200Z,8.60
2017-11-24T07:36:58.440Z,8.60
2017-11-24T07:39:26.720Z,8.70
2017-11-24T07:41:54.985Z,8.80
2017-11-24T07:44:23.266Z,8.80
2017-11-24T07:46:51.508Z,8.90
2017-11-24T07:49:19.849Z,8.90
2017-11-24T07:51:48.149Z,8.90
2017-11-24T07:54:16.393Z,8.90
2017-11-24T07:56:44.663Z,8.90
2017-11-24T07:59:12.946Z,9.00
2017-11-24T08:01:41.182Z,9.00
2017-11-24T08:04:10.205Z,9.00
2017-11-24T08:06:38.449Z,9.00
2017-11-24T08:09:07.450Z,8.90
2017-11-24T08:11:36.520Z,8.80
2017-11-24T08:14:05.567Z,8.60
2017-11-24T08:16:33.828Z,8.60
2017-11-24T08:19:02.845Z,8.60
2017-11-24T08:21:31.137Z,8.60
2017-11-24T08:23:59.395Z,8.50
2017-11-24T08:26:27.643Z,8.60
2017-11-24T08:28:56.679Z,8.50
2017-11-24T08:31:24.926Z,8.50
2017-11-24T08:33:53.213Z,8.40
2017-11-24T08:36:21.453Z,8.40
2017-11-24T08:38:49.698Z,8.50
2017-11-24T08:41:18.877Z,8.50
2017-11-24T08:43:47.114Z,8.50
2017-11-24T08:46:21.941Z,8.70
2017-11-24T08:48:56.762Z,8.80
2017-11-24T08:51:25.060Z,8.80
2017-11-24T08:53:53.347Z,8.80
2017-11-24T08:56:22.367Z,9.00
2017-11-24T08:58:50.618Z,9.00
2017-11-24T09:01:19.680Z,9.00
2017-11-24T09:03:47.927Z,9.00
2017-11-24T09:06:17.808Z,8.90
2017-11-24T09:08:46.116Z,9.00
2017-11-24T09:11:14.377Z,8.90
2017-11-24T09:13:42.625Z,9.00
2017-11-24T09:16:11.659Z,9.00
2017-11-24T09:18:39.933Z,9.00
2017-11-24T09:21:08.183Z,9.10
2017-11-24T09:23:37.211Z,9.10
2017-11-24T09:26:05.451Z,9.00
2017-11-24T09:28:34.484Z,9.10
2017-11-24T09:31:02.876Z,9.00
2017-11-24T09:33:31.145Z,9.20
2017-11-24T09:35:59.373Z,9.10
2017-11-24T09:38:28.397Z,9.10
2017-11-24T09:40:56.691Z,9.10
2017-11-24T09:43:25.000Z,9.20
2017-11-24T09:45:54.090Z,9.30
2017-11-24T09:48:23.087Z,9.30
2017-11-24T09:50:51.338Z,9.30
2017-11-24T09:53:19.619Z,9.20
2017-11-24T09:55:47.845Z,9.10
2017-11-24T09:58:16.869Z,9.00
2017-11-24T10:00:45.137Z,9.00
2017-11-24T10:03:13.418Z,9.10
2017-11-24T10:05:42.443Z,9.00
2017-11-24T10:08:10.677Z,9.00
2017-11-24T10:10:39.708Z,9.00
2017-11-24T10:13:07.932Z,9.00
2017-11-24T10:15:36.203Z,9.10
2017-11-24T10:18:04.433Z,9.10
2017-11-24T10:23:40.580Z,9.20
2017-11-24T10:26:09.594Z,9.20
2017-11-24T10:28:38.568Z,9.10
2017-11-24T10:31:07.589Z,9.10
2017-11-24T10:33:35.876Z,9.10
2017-11-24T10:36:04.159Z,9.10
2017-11-24T10:38:32.417Z,9.00
2017-11-24T10:41:01.404Z,9.00
2017-11-24T10:43:30.444Z,9.10
2017-11-24T10:45:58.746Z,9.10
2017-11-24T10:48:27.018Z,9.10
2017-11-24T10:50:55.228Z,9.10
2017-11-24T10:53:23.483Z,9.10
2017-11-24T10:55:51.758Z,9.10
2017-11-24T10:58:20.242Z,9.10
2017-11-24T11:00:48.477Z,9.10
2017-11-24T11:03:16.765Z,9.20
2017-11-24T11:05:45.046Z,9.20
2017-11-24T11:08:13.286Z,9.20
2017-11-24T11:10:41.546Z,9.20
2017-11-24T11:13:10.580Z,9.40
2017-11-24T11:15:38.835Z,9.40
2017-11-24T11:18:07.091Z,9.40
2017-11-24T11:20:36.096Z,9.40
2017-11-24T11:23:05.115Z,9.40
2017-11-24T11:25:33.346Z,9.40
2017-11-24T11:28:02.384Z,9.40
2017-11-24T11:30:30.706Z,9.40
2017-11-24T11:32:58.959Z,9.30
2017-11-24T11:35:27.207Z,9.20
2017-11-24T11:37:55.475Z,9.30
2017-11-24T11:40:23.749Z,9.30
2017-11-24T11:42:52.009Z,9.30
2017-11-24T11:45:20.353Z,9.20
2017-11-24T11:47:48.678Z,9.30
2017-11-24T11:50:17.697Z,9.10
2017-11-24T11:52:45.948Z,9.10
2017-11-24T11:55:15.015Z,9.10
2017-11-24T11:57:43.236Z,9.10
2017-11-24T12:00:11.492Z,9.10
2017-11-24T12:02:40.519Z,9.00
2017-11-24T12:05:08.838Z,9.00
2017-11-24T12:07:37.130Z,9.10
2017-11-24T12:10:05.390Z,9.10
2017-11-24T12:12:33.679Z,9.10
2017-11-24T12:15:01.951Z,9.10
2017-11-24T12:17:30.195Z,9.10
2017-11-24T12:19:58.457Z,9.10
2017-11-24T12:22:26.701Z,9.00
2017-11-24T12:24:55.728Z,8.90
2017-11-24T12:27:24.019Z,8.90
2017-11-24T12:29:52.291Z,8.90
2017-11-24T12:32:20.575Z,8.90
2017-11-24T12:34:48.834Z,8.80
2017-11-24T12:37:17.187Z,8.90
2017-11-24T12:39:46.190Z,9.00
2017-11-24T12:42:14.541Z,9.00
2017-11-24T12:44:42.929Z,9.00
2017-11-24T12:47:11.159Z,9.10
2017-11-24T12:49:39.400Z,9.10
2017-11-24T12:52:08.425Z,9.10
2017-11-24T12:54:36.767Z,9.10
2017-11-24T12:57:05.035Z,9.10
2017-11-24T12:59:33.271Z,9.00
2017-11-24T13:02:01.541Z,8.80
2017-11-24T13:04:30.274Z,8.60
2017-11-24T13:06:58.505Z,8.60
2017-11-24T13:09:26.799Z,8.60
2017-11-24T13:11:55.079Z,8.70
2017-11-24T13:14:23.348Z,8.70
2017-11-24T13:16:51.725Z,8.70
2017-11-24T13:19:20.911Z,8.60
2017-11-24T13:21:49.160Z,8.60
2017-11-24T13:24:18.177Z,8.70
2017-11-24T13:26:46.453Z,8.70
2017-11-24T13:29:14.746Z,8.60
2017-11-24T13:31:43.014Z,8.70
2017-11-24T13:34:11.322Z,8.50
2017-11-24T13:36:39.633Z,8.50
2017-11-24T13:39:08.006Z,8.50
2017-11-24T13:41:37.477Z,8.50
2017-11-24T13:44:05.757Z,8.40
2017-11-24T13:46:34.080Z,8.40
2017-11-24T13:49:03.182Z,8.40
2017-11-24T13:51:33.585Z,8.40
2017-11-24T13:54:01.906Z,8.50
2017-11-24T13:56:30.918Z,8.60
2017-11-24T13:58:59.177Z,8.60
2017-11-24T14:01:27.418Z,8.70
2017-11-24T14:03:55.696Z,8.70
2017-11-24T14:06:23.972Z,8.70
2017-11-24T14:08:52.255Z,8.60
2017-11-24T14:11:20.531Z,8.60
2017-11-24T14:13:49.593Z,8.70
2017-11-24T14:16:21.479Z,8.70
2017-11-24T14:18:50.169Z,8.70
2017-11-24T14:21:18.441Z,8.60
2017-11-24T14:23:46.706Z,8.60
2017-11-24T14:26:14.954Z,8.70
2017-11-24T14:28:43.263Z,8.70
2017-11-24T14:31:11.534Z,8.70
2017-11-24T14:33:39.840Z,8.70
2017-11-24T14:36:08.892Z,8.70
2017-11-24T14:38:37.129Z,8.70
2017-11-24T14:41:06.148Z,8.70
2017-11-24T14:43:34.415Z,8.70
2017-11-24T14:46:02.721Z,8.70
2017-11-24T14:48:31.023Z,8.80
2017-11-24T14:50:59.288Z,8.80
2017-11-24T14:53:28.118Z,8.80
2017-11-24T14:55:57.161Z,8.70
2017-11-24T14:58:25.452Z,8.70
2017-11-24T15:00:53.713Z,8.80
2017-11-24T15:03:22.243Z,8.80
2017-11-24T15:05:50.632Z,8.80
2017-11-24T15:08:19.005Z,8.90
2017-11-24T15:10:47.508Z,8.80
2017-11-24T15:13:16.555Z,8.80
2017-11-24T15:15:45.186Z,8.80
2017-11-24T15:18:13.472Z,8.80
2017-11-24T15:20:41.824Z,8.80
2017-11-24T15:23:10.169Z,8.80
2017-11-24T15:25:38.520Z,8.80
2017-11-24T15:28:07.165Z,8.80
2017-11-24T15:30:35.464Z,8.80
2017-11-24T15:33:04.774Z,8.90
2017-11-24T15:35:33.649Z,8.90
2017-11-24T15:38:01.945Z,8.80
2017-11-24T15:40:31.300Z,8.80
2017-11-24T15:43:00.471Z,8.80
2017-11-24T15:45:29.094Z,8.80
2017-11-24T15:47:59.072Z,8.60
2017-11-24T15:50:27.495Z,8.60
2017-11-24T15:52:55.884Z,8.60
2017-11-24T15:55:24.360Z,8.60
2017-11-24T15:57:52.640Z,8.60
2017-11-24T16:00:21.805Z,8.60
2017-11-24T16:02:51.044Z,8.60
2017-11-24T16:05:19.373Z,8.50
2017-11-24T16:07:59.058Z,8.60
2017-11-24T16:10:28.159Z,8.50
2017-11-24T16:12:57.213Z,8.50
2017-11-24T16:15:25.531Z,8.50
2017-11-24T16:17:53.781Z,8.50
2017-11-24T16:20:22.050Z,8.50
2017-11-24T16:22:50.408Z,8.50
2017-11-24T16:25:18.714Z,8.40
2017-11-24T16:27:47.018Z,8.50
2017-11-24T16:30:15.915Z,8.50
2017-11-24T16:32:45.727Z,8.40
2017-11-24T16:35:14.102Z,8.50
2017-11-24T16:37:42.459Z,8.40
2017-11-24T16:40:10.830Z,8.40
2017-11-24T16:42:39.244Z,8.40
2017-11-24T16:45:08.002Z,8.40
2017-11-24T16:47:36.339Z,8.40
2017-11-24T16:50:04.808Z,8.30
2017-11-24T16:52:33.107Z,8.30
2017-11-24T16:55:02.357Z,8.40
2017-11-24T16:57:31.051Z,8.30
2017-11-24T16:59:59.348Z,8.40
2017-11-24T17:02:30.173Z,8.40
2017-11-24T17:04:58.457Z,8.30
2017-11-24T17:07:27.857Z,8.20
2017-11-24T17:09:57.223Z,8.10
2017-11-24T17:12:26.276Z,8.00
2017-11-24T17:14:55.485Z,8.00
2017-11-24T17:17:25.704Z,7.90
2017-11-24T17:19:55.518Z,7.80
2017-11-24T17:22:23.872Z,7.90
2017-11-24T17:24:52.201Z,7.90
2017-11-24T17:27:20.617Z,7.90
2017-11-24T17:29:48.969Z,7.90
2017-11-24T17:32:17.253Z,7.80
2017-11-24T17:34:45.514Z,7.80
2017-11-24T17:37:13.868Z,7.70
2017-11-24T17:39:42.940Z,7.70
2017-11-24T17:42:12.018Z,7.70
2017-11-24T17:44:40.337Z,7.80
2017-11-24T17:47:08.646Z,7.80
2017-11-24T17:49:37.813Z,7.80
2017-11-24T17:52:06.187Z,7.70
2017-11-24T17:54:34.472Z,7.80
2017-11-24T17:57:02.749Z,7.80
2017-11-24T17:59:31.830Z,7.80
2017-11-24T18:02:00.080Z,7.70
2017-11-24T18:04:29.267Z,7.70
2017-11-24T18:06:57.507Z,7.70
2017-11-24T18:09:25.865Z,7.60
2017-11-24T18:11:54.149Z,7.60
2017-11-24T18:14:23.228Z,7.50
2017-11-24T18:16:51.505Z,7.50
2017-11-24T18:19:19.789Z,7.50
2017-11-24T18:21:49.088Z,7.40
2017-11-24T18:24:18.211Z,7.30
2017-11-24T18:26:46.526Z,7.30
2017-11-24T18:29:15.140Z,7.30
2017-11-24T18:31:43.405Z,7.30
2017-11-24T18:34:11.841Z,7.30
2017-11-24T18:36:40.128Z,7.20
2017-11-24T18:39:09.053Z,7.10
2017-11-24T18:41:37.350Z,7.20
2017-11-24T18:44:06.665Z,7.20
2017-11-24T18:46:35.723Z,7.30
2017-11-24T18:49:03.998Z,7.30
2017-11-24T18:51:32.284Z,7.20
2017-11-24T18:54:00.546Z,7.10
2017-11-24T18:56:28.836Z,7.00
2017-11-24T18:58:57.068Z,7.00
2017-11-24T19:01:25.412Z,7.10
2017-11-24T19:03:55.239Z,7.10
2017-11-24T19:06:23.515Z,7.00
2017-11-24T19:08:52.756Z,7.00
2017-11-24T19:11:21.084Z,7.00
2017-11-24T19:13:49.466Z,7.00
2017-11-24T19:16:17.710Z,7.00
2017-11-24T19:18:45.975Z,7.00
2017-11-24T19:21:15.057Z,6.90
2017-11-24T19:23:43.352Z,6.70
2017-11-24T19:26:11.642Z,6.60
2017-11-24T19:28:39.967Z,6.60
2017-11-24T19:31:09.120Z,6.60
2017-11-24T19:33:39.035Z,6.60
2017-11-24T19:36:07.432Z,6.60
2017-11-24T19:38:35.802Z,6.60
2017-11-24T19:41:04.128Z,6.60
2017-11-24T19:43:34.159Z,6.50
2017-11-24T19:46:02.488Z,6.50
2017-11-24T19:48:30.809Z,6.50
2017-11-24T19:50:59.849Z,6.60
2017-11-24T19:53:32.447Z,6.60
2017-11-24T19:56:01.663Z,6.60
2017-11-24T19:58:31.010Z,6.60
2017-11-24T20:00:59.272Z,6.60
2017-11-24T20:03:27.910Z,6.50
2017-11-24T20:05:56.262Z,6.50
2017-11-24T20:08:24.530Z,6.50
2017-11-24T20:10:52.946Z,6.40
2017-11-24T20:13:23.190Z,6.40
2017-11-24T20:15:52.853Z,6.30
2017-11-24T20:18:21.407Z,6.30
2017-11-24T20:20:50.509Z,6.10
2017-11-24T20:23:18.881Z,6.10
2017-11-24T20:25:47.255Z,6.00
2017-11-24T20:28:16.489Z,6.00
2017-11-24T20:30:44.885Z,6.00
2017-11-24T20:33:13.194Z,6.10
2017-11-24T20:35:44.525Z,6.00
2017-11-24T20:38:12.811Z,6.00
2017-11-24T20:40:53.960Z,6.00
2017-11-24T20:43:22.735Z,6.00
2017-11-24T20:45:52.423Z,5.90
2017-11-24T20:48:20.795Z,5.90
2017-11-24T20:50:51.417Z,6.10
2017-11-24T20:53:20.447Z,6.10
2017-11-24T20:55:49.554Z,6.20
2017-11-24T20:58:17.935Z,6.20
2017-11-24T21:00:46.250Z,6.20
2017-11-24T21:03:15.514Z,6.30
2017-11-24T21:05:43.935Z,6.30
2017-11-24T21:08:12.348Z,6.40
2017-11-24T21:10:41.303Z,6.40
2017-11-24T21:13:11.205Z,6.50
2017-11-24T21:15:39.515Z,6.50
2017-11-24T21:18:08.807Z,6.50
2017-11-24T21:20:38.877Z,6.40
2017-11-24T21:23:07.257Z,6.40
2017-11-24T21:25:35.610Z,6.50
2017-11-24T21:28:04.981Z,6.50
2017-11-24T21:30:33.253Z,6.50
2017-11-24T21:33:01.602Z,6.50
2017-11-24T21:35:30.632Z,6.50
2017-11-24T21:37:58.914Z,6.40
2017-11-24T21:40:27.456Z,6.40
2017-11-24T21:42:55.892Z,6.40
2017-11-24T21:45:24.291Z,6.30
2017-11-24T21:47:53.379Z,6.30
2017-11-24T21:50:22.559Z,6.30
2017-11-24T21:52:50.824Z,6.30
2017-11-24T21:55:19.527Z,6.30
2017-11-24T21:57:47.933Z,6.30
2017-11-24T22:00:16.960Z,6.40
2017-11-24T22:02:45.242Z,6.40
2017-11-24T22:05:13.778Z,6.40
2017-11-24T22:07:42.193Z,6.40
2017-11-24T22:10:10.718Z,6.40
2017-11-24T22:12:40.809Z,6.40
2017-11-24T22:15:09.040Z,6.40
2017-11-24T22:17:38.981Z,6.40
2017-11-24T22:20:07.284Z,6.40
2017-11-24T22:22:35.556Z,6.40
2017-11-24T22:25:03.920Z,6.40
2017-11-24T22:27:32.206Z,6.30
2017-11-24T22:30:00.517Z,6.20
2017-11-24T22:32:28.789Z,6.30
2017-11-24T22:34:57.055Z,6.30
2017-11-24T22:37:25.490Z,6.30
2017-11-24T22:39:54.551Z,6.40
2017-11-24T22:42:22.836Z,6.30
2017-11-24T22:44:51.081Z,6.50
2017-11-24T22:47:19.389Z,6.30
2017-11-24T22:49:47.762Z,6.20
2017-11-24T22:52:16.086Z,6.20
2017-11-24T22:54:45.004Z,6.20
2017-11-24T22:57:13.305Z,6.20
2017-11-24T22:59:41.653Z,6.20
2017-11-24T23:02:09.881Z,6.10
2017-11-24T23:04:38.249Z,6.10
2017-11-24T23:07:06.506Z,6.10
2017-11-24T23:09:34.814Z,6.10
2017-11-24T23:12:03.324Z,6.10
2017-11-24T23:14:31.617Z,6.10
2017-11-24T23:17:00.717Z,6.00
2017-11-24T23:19:29.869Z,6.00
2017-11-24T23:21:58.114Z,5.90
2017-11-24T23:24:28.141Z,6.00
2017-11-24T23:26:56.394Z,6.00
2017-11-24T23:29:24.750Z,6.00
2017-11-24T23:31:53.007Z,6.00
2017-11-24T23:34:22.245Z,6.00
2017-11-24T23:36:50.567Z,6.00
2017-11-24T23:39:20.498Z,6.00
2017-11-24T23:41:48.816Z,6.10
2017-11-24T23:44:17.119Z,6.00
2017-11-24T23:46:46.428Z,6.00
2017-11-24T23:49:14.669Z,6.00
2017-11-24T23:51:43.727Z,6.00
2017-11-24T23:54:12.715Z,6.00
2017-11-24T23:56:40.932Z,6.00
2017-11-24T23:59:09.194Z,6.00
